Time;durP1;ratioP1;P1;durP2;ratioP2;P2;SDS_P1;SDS_P2;PMS_P1;PMS_P2;Temp;Humidity;BMP_temperature;BMP_pressure;BME280_temperature;BME280_humidity;BME280_pressure;Samples;Min_cycle;Max_cycle;Signal;HPM_P1;HPM_P2
2021/07/11 00:00:18;;;;;;;5.38;3.15;;;16.70;99.90;;;;;;4939030;28;20062;-71
2021/07/11 00:02:44;;;;;;;3.88;2.70;;;16.80;99.90;;;;;;4931929;29;20027;-71
2021/07/11 00:05:13;;;;;;;3.20;2.50;;;16.80;99.90;;;;;;4931683;29;20043;-70
2021/07/11 00:07:39;;;;;;;3.67;2.60;;;16.90;99.90;;;;;;4931933;29;20474;-70
2021/07/11 00:10:06;;;;;;;2.67;2.47;;;16.90;99.90;;;;;;4930881;29;20043;-71
2021/07/11 00:12:32;;;;;;;5.95;3.17;;;16.80;99.90;;;;;;4931618;29;20019;-70
2021/07/11 00:14:58;;;;;;;4.60;2.83;;;16.80;99.90;;;;;;4931519;29;20058;-70
2021/07/11 00:17:24;;;;;;;3.90;3.53;;;16.90;99.90;;;;;;4931683;29;20051;-71
2021/07/11 00:19:49;;;;;;;4.88;3.47;;;16.90;99.90;;;;;;4931111;29;20031;-70
2021/07/11 00:22:15;;;;;;;5.88;3.35;;;17.00;99.90;;;;;;4931587;29;20466;-71
2021/07/11 00:24:43;;;;;;;4.93;3.03;;;16.90;99.90;;;;;;4931437;29;20036;-72
2021/07/11 00:27:09;;;;;;;4.15;3.03;;;16.90;99.90;;;;;;4931528;29;20024;-71
2021/07/11 00:29:35;;;;;;;3.88;3.40;;;16.60;99.90;;;;;;4936063;29;20043;-71
2021/07/11 00:32:00;;;;;;;6.03;3.58;;;16.70;99.90;;;;;;4950568;28;20046;-71
2021/07/11 00:34:27;;;;;;;5.28;4.00;;;16.70;99.90;;;;;;4949457;28;20150;-70
2021/07/11 00:36:53;;;;;;;4.45;3.67;;;16.80;99.90;;;;;;4952042;28;20093;-70
2021/07/11 00:39:18;;;;;;;3.22;2.92;;;16.90;99.90;;;;;;4958592;28;20074;-71
2021/07/11 00:41:44;;;;;;;6.40;3.90;;;16.70;99.90;;;;;;4969023;28;20054;-70
2021/07/11 00:44:10;;;;;;;3.65;3.35;;;16.80;99.90;;;;;;4955564;28;20058;-70
2021/07/11 00:46:36;;;;;;;5.72;3.53;;;16.70;99.90;;;;;;4972897;28;20023;-71
2021/07/11 00:49:04;;;;;;;4.45;3.58;;;16.80;99.90;;;;;;4965373;28;20080;-70
2021/07/11 00:51:30;;;;;;;4.97;3.28;;;16.80;99.90;;;;;;4964224;28;20123;-71
2021/07/11 00:53:56;;;;;;;4.20;3.70;;;16.70;99.90;;;;;;4972929;28;20023;-70
2021/07/11 00:56:22;;;;;;;8.65;3.78;;;16.70;99.90;;;;;;4972765;28;20523;-72
2021/07/11 00:58:48;;;;;;;6.47;3.70;;;16.70;99.90;;;;;;4972807;28;20031;-70
2021/07/11 01:01:23;;;;;;;6.13;3.83;;;16.70;99.90;;;;;;4953188;28;20463;-70
2021/07/11 01:03:51;;;;;;;4.80;3.65;;;16.60;99.90;;;;;;4953658;29;20106;-71
2021/07/11 01:06:18;;;;;;;7.18;4.00;;;16.70;99.90;;;;;;4953296;29;20106;-71
2021/07/11 01:08:55;;;;;;;3.88;3.55;;;16.70;99.90;;;;;;4953302;29;20029;-70
2021/07/11 01:11:24;;;;;;;3.30;3.00;;;16.60;99.90;;;;;;4952874;29;20035;-72
2021/07/11 01:13:54;;;;;;;4.18;3.78;;;16.50;99.90;;;;;;4954093;29;20496;-71
2021/07/11 01:16:25;;;;;;;7.25;3.38;;;16.50;99.90;;;;;;4953494;29;20059;-70
2021/07/11 01:18:52;;;;;;;5.03;3.00;;;16.50;99.90;;;;;;4953341;29;20374;-70
2021/07/11 01:21:21;;;;;;;3.10;2.63;;;16.50;99.90;;;;;;4952612;29;20259;-70
2021/07/11 01:24:10;;;;;;;2.83;2.63;;;16.60;99.90;;;;;;4953102;29;20050;-70
2021/07/11 01:26:36;;;;;;;5.38;2.47;;;16.60;99.90;;;;;;4952987;29;20050;-71
2021/07/11 01:29:02;;;;;;;3.80;2.45;;;16.50;99.90;;;;;;4952022;29;20034;-71
2021/07/11 01:31:29;;;;;;;2.95;2.05;;;16.40;99.90;;;;;;4916070;28;20031;-70
2021/07/11 01:33:56;;;;;;;2.90;2.50;;;16.40;99.90;;;;;;4934105;29;20063;-70
2021/07/11 01:36:22;;;;;;;4.45;2.20;;;16.30;99.90;;;;;;4950691;28;20054;-71
2021/07/11 01:38:49;;;;;;;4.70;2.40;;;16.30;99.90;;;;;;4965123;28;20084;-71
2021/07/11 01:41:19;;;;;;;3.85;2.38;;;16.40;99.90;;;;;;4971733;28;20037;-71
2021/07/11 01:43:47;;;;;;;6.75;2.38;;;16.40;99.90;;;;;;4972395;28;20105;-70
2021/07/11 01:46:14;;;;;;;3.85;2.15;;;16.50;99.90;;;;;;4954701;28;20084;-71
2021/07/11 01:48:42;;;;;;;4.25;2.60;;;16.50;99.90;;;;;;4972222;28;20480;-70
2021/07/11 01:51:08;;;;;;;4.20;2.63;;;16.50;99.90;;;;;;4954138;28;20031;-70
2021/07/11 01:53:37;;;;;;;4.63;2.30;;;16.50;99.90;;;;;;4971669;28;20027;-71
2021/07/11 01:56:06;;;;;;;4.25;2.50;;;16.50;99.90;;;;;;4972014;28;20027;-71
2021/07/11 01:58:32;;;;;;;4.72;2.33;;;16.50;99.90;;;;;;4971903;28;20037;-70
2021/07/11 02:01:00;;;;;;;2.25;2.05;;;16.40;99.90;;;;;;4954428;28;20043;-71
2021/07/11 02:03:26;;;;;;;5.93;2.60;;;16.10;99.90;;;;;;4952712;29;20575;-70
2021/07/11 02:05:53;;;;;;;2.58;2.38;;;16.20;99.90;;;;;;4952538;29;20027;-71
2021/07/11 02:08:20;;;;;;;2.95;2.45;;;16.30;99.90;;;;;;4952680;29;20065;-71
2021/07/11 02:10:47;;;;;;;3.58;2.67;;;16.30;99.90;;;;;;4952144;29;20178;-70
2021/07/11 02:13:23;;;;;;;4.65;2.97;;;16.40;99.90;;;;;;4952656;29;20070;-70
2021/07/11 02:15:50;;;;;;;3.47;2.67;;;16.30;99.90;;;;;;4952532;29;20027;-71
2021/07/11 02:18:19;;;;;;;2.72;2.53;;;16.20;99.90;;;;;;4952543;28;20088;-71
2021/07/11 02:20:49;;;;;;;3.65;3.35;;;16.20;99.90;;;;;;4952767;29;20378;-70
2021/07/11 02:23:17;;;;;;;3.10;2.65;;;16.30;99.90;;;;;;4969704;29;20027;-70
2021/07/11 02:25:46;;;;;;;8.57;2.97;;;16.20;99.90;;;;;;4961853;28;20041;-71
2021/07/11 02:28:12;;;;;;;4.93;2.78;;;16.30;99.90;;;;;;4952223;29;20493;-70
2021/07/11 02:30:50;;;;;;;6.38;2.72;;;16.20;99.90;;;;;;4951173;29;20027;-71
2021/07/11 02:33:17;;;;;;;4.57;3.10;;;16.20;99.90;;;;;;4934958;28;20418;-71
2021/07/11 02:35:46;;;;;;;5.85;3.08;;;16.20;99.90;;;;;;4952227;29;20436;-70
2021/07/11 02:38:14;;;;;;;3.20;3.00;;;16.40;99.90;;;;;;4952055;29;20069;-71
2021/07/11 02:40:41;;;;;;;5.95;3.17;;;16.30;99.90;;;;;;4934577;28;20089;-71
2021/07/11 02:43:09;;;;;;;4.95;2.97;;;16.30;99.90;;;;;;4952831;28;20035;-70
2021/07/11 02:45:36;;;;;;;4.20;2.90;;;16.30;99.90;;;;;;4961030;29;20085;-71
2021/07/11 02:48:04;;;;;;;7.20;3.67;;;16.30;99.90;;;;;;4952718;29;20061;-69
2021/07/11 02:50:31;;;;;;;6.10;3.67;;;16.40;99.90;;;;;;4951087;29;20030;-71
2021/07/11 02:52:57;;;;;;;5.65;3.80;;;16.40;99.90;;;;;;4952247;29;20425;-71
2021/07/11 02:55:31;;;;;;;8.02;4.13;;;16.40;99.90;;;;;;4956333;29;20035;-71
2021/07/11 02:58:04;;;;;;;6.93;4.38;;;16.40;99.90;;;;;;4951685;29;20069;-71
2021/07/11 03:00:30;;;;;;;7.80;3.80;;;16.40;99.90;;;;;;4950535;29;20043;-70
2021/07/11 03:02:57;;;;;;;5.80;3.35;;;16.30;99.90;;;;;;4951851;29;20397;-70
2021/07/11 03:05:24;;;;;;;10.18;3.00;;;16.20;99.90;;;;;;4950782;29;20541;-71
2021/07/11 03:07:50;;;;;;;4.97;3.70;;;16.20;99.90;;;;;;4951740;29;20505;-70
2021/07/11 03:10:17;;;;;;;4.32;3.53;;;16.10;99.90;;;;;;4950885;29;20454;-71
2021/07/11 03:12:49;;;;;;;9.98;4.10;;;16.10;99.90;;;;;;4951379;29;20485;-70
2021/07/11 03:15:16;;;;;;;5.68;3.70;;;16.20;99.90;;;;;;4951488;29;20390;-70
2021/07/11 03:17:42;;;;;;;4.40;3.65;;;16.30;99.90;;;;;;4951671;29;20038;-70
2021/07/11 03:20:11;;;;;;;4.13;3.72;;;16.20;99.90;;;;;;4950996;29;20126;-71
2021/07/11 03:22:38;;;;;;;5.22;4.05;;;16.30;99.90;;;;;;4951752;29;20500;-70
2021/07/11 03:25:08;;;;;;;9.30;3.83;;;16.20;99.90;;;;;;4951483;29;20381;-70
2021/07/11 03:27:35;;;;;;;3.85;3.45;;;16.30;99.90;;;;;;4951552;29;20019;-71
2021/07/11 03:30:10;;;;;;;6.72;3.55;;;16.10;99.90;;;;;;4950476;28;20038;-70
2021/07/11 03:32:41;;;;;;;7.47;5.03;;;16.20;99.90;;;;;;4951362;29;20023;-70
2021/07/11 03:35:09;;;;;;;4.13;3.80;;;16.20;99.90;;;;;;4951737;28;20089;-71
2021/07/11 03:37:38;;;;;;;4.85;3.42;;;16.10;99.90;;;;;;4951237;29;20098;-71
2021/07/11 03:40:07;;;;;;;4.35;3.95;;;16.10;99.90;;;;;;4950525;28;20501;-70
2021/07/11 03:42:38;;;;;;;4.55;3.60;;;16.10;99.90;;;;;;4951187;29;20027;-70
2021/07/11 03:45:04;;;;;;;4.88;4.10;;;16.20;99.90;;;;;;4950976;29;20118;-70
2021/07/11 03:47:37;;;;;;;7.95;3.83;;;16.30;99.90;;;;;;4951137;29;20393;-70
2021/07/11 03:50:05;;;;;;;6.95;4.68;;;16.20;99.90;;;;;;4950220;29;20106;-70
2021/07/11 03:52:51;;;;;;;4.30;3.72;;;16.10;99.90;;;;;;4951076;29;20023;-71
2021/07/11 03:55:19;;;;;;;3.60;3.28;;;16.20;99.90;;;;;;4951179;29;20053;-70
2021/07/11 03:57:46;;;;;;;11.38;3.70;;;16.00;99.90;;;;;;4951123;29;20031;-70
2021/07/11 04:02:50;;;;;;;5.13;3.05;;;16.00;99.90;;;;;;4913107;29;19934;-72
2021/07/11 04:05:21;;;;;;;3.85;3.55;;;15.90;99.90;;;;;;4909387;29;20036;-73
2021/07/11 04:07:54;;;;;;;4.35;4.05;;;16.00;99.90;;;;;;4912673;29;20071;-73
2021/07/11 04:10:25;;;;;;;4.68;3.90;;;16.10;99.90;;;;;;4911928;29;20027;-72
2021/07/11 04:12:52;;;;;;;6.07;3.67;;;16.00;99.90;;;;;;4911484;28;20028;-72
2021/07/11 04:15:17;;;;;;;7.20;3.80;;;16.00;99.90;;;;;;4912628;29;20066;-75
2021/07/11 04:17:49;;;;;;;6.13;3.90;;;16.10;99.90;;;;;;4912186;29;20068;-72
2021/07/11 04:20:16;;;;;;;6.82;3.90;;;16.20;99.90;;;;;;4911812;29;20036;-72
2021/07/11 04:22:42;;;;;;;4.72;3.85;;;16.10;99.90;;;;;;4912807;29;20062;-73
2021/07/11 04:25:13;;;;;;;5.63;4.20;;;16.10;99.90;;;;;;4912626;29;20028;-73
2021/07/11 04:27:39;;;;;;;5.18;4.60;;;16.10;99.90;;;;;;4912349;29;20074;-73
2021/07/11 04:30:07;;;;;;;6.03;4.00;;;16.10;99.90;;;;;;4911936;29;20032;-73
2021/07/11 04:32:36;;;;;;;6.85;4.00;;;16.10;99.90;;;;;;4928989;29;20031;-74
2021/07/11 04:35:03;;;;;;;6.03;4.15;;;16.00;99.90;;;;;;4931584;29;20114;-73
2021/07/11 04:37:29;;;;;;;8.32;4.68;;;15.90;99.90;;;;;;4931519;29;20036;-73
2021/07/11 04:39:54;;;;;;;5.80;4.65;;;16.10;99.90;;;;;;4930756;29;20030;-73
2021/07/11 04:42:20;;;;;;;7.75;4.53;;;16.20;99.90;;;;;;4931249;29;20063;-73
2021/07/11 04:44:46;;;;;;;7.68;4.90;;;16.20;99.90;;;;;;4931373;29;20031;-74
2021/07/11 04:47:12;;;;;;;10.07;5.03;;;16.10;99.90;;;;;;4931293;29;20028;-74
2021/07/11 04:49:38;;;;;;;13.85;5.93;;;16.20;99.90;;;;;;4930679;29;20028;-74
2021/07/11 04:52:04;;;;;;;5.53;5.03;;;16.20;99.90;;;;;;4931129;29;20085;-74
2021/07/11 04:54:31;;;;;;;10.15;5.32;;;16.10;99.90;;;;;;4931343;29;20038;-73
2021/07/11 04:56:58;;;;;;;8.27;4.35;;;16.10;99.90;;;;;;4930351;29;20036;-74
2021/07/11 04:59:23;;;;;;;12.52;5.45;;;16.10;99.90;;;;;;4932212;29;20028;-74
2021/07/11 05:01:49;;;;;;;9.93;5.20;;;16.20;99.90;;;;;;4913550;29;20417;-74
2021/07/11 05:04:15;;;;;;;8.73;5.10;;;16.30;99.90;;;;;;4931147;29;20478;-74
2021/07/11 05:06:41;;;;;;;5.90;4.18;;;16.30;99.90;;;;;;4931692;29;20679;-74
2021/07/11 05:09:07;;;;;;;5.22;4.80;;;16.30;99.90;;;;;;4930940;29;20496;-74
2021/07/11 05:11:33;;;;;;;6.57;4.43;;;16.40;99.90;;;;;;4930008;29;20028;-74
2021/07/11 05:13:59;;;;;;;6.57;4.25;;;16.30;99.90;;;;;;4930691;29;20024;-74
2021/07/11 05:16:24;;;;;;;11.70;4.20;;;16.30;99.90;;;;;;4930527;29;20032;-72
2021/07/11 05:18:50;;;;;;;6.50;4.40;;;16.30;99.90;;;;;;4930983;29;20475;-73
2021/07/11 05:21:16;;;;;;;9.48;3.83;;;16.30;99.90;;;;;;4930089;29;20161;-73
2021/07/11 05:23:41;;;;;;;4.20;2.72;;;16.20;99.90;;;;;;4930920;29;20032;-72
2021/07/11 05:26:07;;;;;;;6.32;3.00;;;16.20;99.90;;;;;;4930424;29;20036;-74
2021/07/11 05:28:33;;;;;;;2.95;2.75;;;16.30;99.90;;;;;;4931605;29;20020;-74
2021/07/11 05:30:59;;;;;;;12.88;2.78;;;16.30;99.90;;;;;;4932642;29;20020;-74
2021/07/11 05:33:24;;;;;;;5.15;2.45;;;16.10;99.90;;;;;;4933955;29;20051;-73
2021/07/11 05:35:50;;;;;;;5.10;2.78;;;16.30;99.90;;;;;;4934113;29;20638;-74
2021/07/11 05:38:16;;;;;;;3.67;2.58;;;16.50;99.90;;;;;;4933989;29;20043;-74
2021/07/11 05:40:41;;;;;;;3.58;2.38;;;16.40;99.90;;;;;;4933054;29;20070;-74
2021/07/11 05:43:07;;;;;;;2.40;2.13;;;16.40;99.90;;;;;;4933549;29;20020;-73
2021/07/11 05:45:33;;;;;;;4.70;2.40;;;16.50;99.90;;;;;;4934224;29;20042;-75
2021/07/11 05:47:59;;;;;;;5.35;2.50;;;16.80;99.90;;;;;;4933680;29;20063;-74
2021/07/11 05:50:24;;;;;;;6.68;2.97;;;17.20;99.90;;;;;;4915937;29;20473;-73
2021/07/11 05:52:50;;;;;;;2.38;2.00;;;17.40;99.90;;;;;;4918670;29;20517;-72
2021/07/11 05:55:16;;;;;;;2.08;1.90;;;17.20;99.90;;;;;;4913874;28;20039;-72
2021/07/11 05:57:42;;;;;;;3.35;1.98;;;17.00;99.90;;;;;;4914812;28;20383;-72
2021/07/11 06:00:11;;;;;;;3.83;2.05;;;17.20;99.90;;;;;;4897024;28;20024;-73
2021/07/11 06:02:37;;;;;;;9.85;1.90;;;17.30;99.90;;;;;;4931542;29;20637;-71
2021/07/11 06:05:03;;;;;;;5.13;1.90;;;16.90;99.90;;;;;;4928744;28;20040;-72
2021/07/11 06:07:29;;;;;;;3.75;2.15;;;17.00;99.90;;;;;;4931931;28;20024;-69
2021/07/11 06:09:57;;;;;;;5.85;1.98;;;17.30;99.90;;;;;;4907412;29;20092;-71
2021/07/11 06:12:23;;;;;;;3.85;1.77;;;17.50;99.90;;;;;;4918559;29;20031;-72
2021/07/11 06:14:49;;;;;;;2.40;1.85;;;17.50;99.90;;;;;;4912985;29;20383;-72
2021/07/11 06:17:15;;;;;;;4.82;2.00;;;17.80;99.90;;;;;;4912443;28;20039;-72
2021/07/11 06:19:41;;;;;;;2.92;1.95;;;17.80;99.90;;;;;;4911631;28;20032;-73
2021/07/11 06:22:07;;;;;;;3.67;2.00;;;18.00;99.90;;;;;;4896158;29;20043;-71
2021/07/11 06:24:32;;;;;;;4.07;1.98;;;17.80;99.90;;;;;;4912281;29;20083;-72
2021/07/11 06:26:58;;;;;;;4.78;1.85;;;17.40;99.90;;;;;;4899920;28;20406;-74
2021/07/11 06:29:24;;;;;;;4.13;1.80;;;17.50;99.90;;;;;;4910490;29;20111;-73
2021/07/11 06:31:49;;;;;;;1.85;1.75;;;17.60;99.90;;;;;;4911497;29;20029;-74
2021/07/11 06:34:15;;;;;;;2.15;1.90;;;17.80;99.90;;;;;;4912429;28;20275;-73
2021/07/11 06:36:41;;;;;;;3.33;2.05;;;18.00;99.90;;;;;;4912013;29;20031;-73
2021/07/11 06:39:07;;;;;;;3.22;1.98;;;18.20;99.90;;;;;;4911108;29;20024;-73
2021/07/11 06:41:33;;;;;;;2.45;2.00;;;18.20;99.90;;;;;;4911269;29;20024;-74
2021/07/11 06:43:59;;;;;;;4.70;2.35;;;18.40;99.90;;;;;;4912657;29;20099;-73
2021/07/11 06:46:24;;;;;;;2.45;2.10;;;18.60;99.90;;;;;;4912387;29;20123;-75
2021/07/11 06:48:50;;;;;;;3.85;2.05;;;19.00;99.90;;;;;;4911880;29;20024;-74
2021/07/11 06:51:16;;;;;;;2.58;1.88;;;18.90;99.90;;;;;;4912190;29;20036;-72
2021/07/11 06:53:42;;;;;;;6.45;2.20;;;18.40;99.90;;;;;;4912643;28;20099;-72
2021/07/11 06:56:08;;;;;;;2.33;2.08;;;18.00;99.90;;;;;;4912056;28;20036;-73
2021/07/11 06:58:34;;;;;;;4.63;2.17;;;18.00;99.90;;;;;;4912135;29;20024;-72
2021/07/11 07:01:00;;;;;;;5.55;2.25;;;18.20;99.90;;;;;;4908023;29;20041;-75
2021/07/11 07:03:26;;;;;;;3.78;1.73;;;18.40;99.90;;;;;;4896136;28;20031;-71
2021/07/11 07:05:52;;;;;;;3.58;2.30;;;18.50;99.90;;;;;;4912186;29;20398;-73
2021/07/11 07:08:18;;;;;;;2.55;2.33;;;18.60;99.90;;;;;;4911825;28;20028;-74
2021/07/11 07:10:44;;;;;;;2.58;2.28;;;18.80;99.90;;;;;;4912571;28;20027;-72
2021/07/11 07:13:09;;;;;;;2.58;1.65;;;18.80;99.90;;;;;;4913252;28;20024;-71
2021/07/11 07:15:35;;;;;;;4.38;1.83;;;18.70;99.90;;;;;;4913749;29;20494;-70
2021/07/11 07:18:01;;;;;;;8.63;2.63;;;18.90;99.90;;;;;;4914387;28;20059;-70
2021/07/11 07:20:27;;;;;;;2.63;2.00;;;19.00;99.90;;;;;;4913274;29;20036;-71
2021/07/11 07:22:53;;;;;;;4.68;1.98;;;18.80;99.90;;;;;;4913884;28;20032;-72
2021/07/11 07:25:19;;;;;;;2.20;2.00;;;18.70;99.90;;;;;;4896583;29;20098;-69
2021/07/11 07:27:45;;;;;;;2.15;1.77;;;18.50;99.90;;;;;;4913346;29;20510;-69
2021/07/11 07:30:15;;;;;;;3.22;2.30;;;18.50;99.90;;;;;;4912165;28;20075;-74
2021/07/11 07:32:42;;;;;;;2.88;2.53;;;18.50;99.90;;;;;;4930681;29;20102;-70
2021/07/11 07:35:08;;;;;;;3.15;2.25;;;19.20;99.90;;;;;;4924362;29;20032;-69
2021/07/11 07:37:35;;;;;;;2.85;2.20;;;19.50;99.90;;;;;;4912996;29;20052;-72
2021/07/11 07:40:04;;;;;;;2.40;1.80;;;19.50;99.90;;;;;;4894883;29;20032;-71
2021/07/11 07:42:29;;;;;;;4.53;1.88;;;19.70;99.90;;;;;;4913102;29;20032;-70
2021/07/11 07:44:55;;;;;;;2.47;2.15;;;19.70;99.90;;;;;;4912634;29;20548;-70
2021/07/11 07:47:21;;;;;;;6.35;2.25;;;19.50;99.90;;;;;;4913309;29;20021;-71
2021/07/11 07:49:47;;;;;;;3.28;1.60;;;19.40;99.90;;;;;;4911908;29;20036;-72
2021/07/11 07:52:12;;;;;;;1.98;1.80;;;19.30;99.90;;;;;;4912458;28;20032;-72
2021/07/11 07:54:38;;;;;;;2.45;2.25;;;19.30;99.90;;;;;;4895784;28;20035;-73
2021/07/11 07:57:04;;;;;;;2.28;2.10;;;19.30;99.90;;;;;;4895548;29;20399;-70
2021/07/11 07:59:29;;;;;;;3.47;2.05;;;19.40;99.90;;;;;;4912291;29;20036;-72
2021/07/11 08:01:55;;;;;;;2.03;1.88;;;19.20;99.90;;;;;;4924421;29;20057;-71
2021/07/11 08:04:21;;;;;;;2.55;1.90;;;19.30;99.90;;;;;;4936075;29;20088;-72
2021/07/11 08:06:49;;;;;;;2.08;1.98;;;19.50;99.90;;;;;;4934937;28;20020;-72
2021/07/11 08:09:16;;;;;;;2.08;1.90;;;20.10;99.90;;;;;;4936878;29;20024;-72
2021/07/11 08:11:43;;;;;;;1.77;1.65;;;19.90;99.90;;;;;;4934020;29;20397;-74
2021/07/11 08:14:09;;;;;;;1.80;1.70;;;19.50;99.90;;;;;;4933939;29;20036;-72
2021/07/11 08:16:34;;;;;;;2.67;1.85;;;19.70;99.90;;;;;;4933956;29;20035;-70
2021/07/11 08:19:00;;;;;;;1.73;1.63;;;19.30;99.90;;;;;;4933702;29;20043;-72
2021/07/11 08:21:26;;;;;;;1.92;1.70;;;18.90;99.90;;;;;;4915720;28;20043;-73
2021/07/11 08:23:52;;;;;;;1.95;1.60;;;18.90;99.90;;;;;;4914832;29;20090;-70
2021/07/11 08:26:18;;;;;;;1.90;1.60;;;19.20;99.90;;;;;;4934985;29;20433;-71
2021/07/11 08:28:43;;;;;;;2.50;1.75;;;19.40;99.90;;;;;;4933244;29;20035;-71
2021/07/11 08:31:09;;;;;;;2.78;1.60;;;19.50;99.90;;;;;;4935875;29;20024;-72
2021/07/11 08:33:35;;;;;;;9.70;1.90;;;19.30;99.90;;;;;;4916968;29;20050;-71
2021/07/11 08:36:01;;;;;;;1.98;1.77;;;19.20;99.90;;;;;;4931741;29;20031;-69
2021/07/11 08:38:26;;;;;;;1.88;1.55;;;19.30;99.90;;;;;;4932206;29;20043;-73
2021/07/11 08:40:52;;;;;;;3.65;2.03;;;19.40;99.90;;;;;;4936805;29;20139;-71
2021/07/11 08:43:19;;;;;;;4.43;1.80;;;19.80;99.90;;;;;;4936966;29;20051;-71
2021/07/11 08:45:44;;;;;;;1.85;1.70;;;20.40;99.90;;;;;;4908405;29;20037;-74
2021/07/11 08:48:11;;;;;;;5.85;1.67;;;20.80;99.90;;;;;;4889115;29;20558;-69
2021/07/11 08:50:37;;;;;;;4.22;1.50;;;20.80;99.90;;;;;;4910081;29;20027;-70
2021/07/11 08:53:03;;;;;;;1.60;1.50;;;21.00;99.90;;;;;;4911861;29;20363;-69
2021/07/11 08:55:29;;;;;;;4.05;1.70;;;21.30;99.90;;;;;;4913706;29;20039;-71
2021/07/11 08:57:58;;;;;;;4.70;1.75;;;21.60;99.90;;;;;;4932065;28;20390;-72
2021/07/11 09:00:27;;;;;;;1.60;1.45;;;21.30;99.90;;;;;;4930749;28;20100;-70
2021/07/11 09:02:54;;;;;;;1.50;1.35;;;21.40;99.90;;;;;;4981481;28;20047;-71
2021/07/11 09:05:25;;;;;;;2.28;1.40;;;21.70;99.90;;;;;;4921961;28;20032;-69
2021/07/11 09:08:23;;;;;;;2.45;1.40;;;21.10;99.90;;;;;;4898556;28;20021;-70
2021/07/11 09:11:00;;;;;;;2.97;2.08;;;20.60;99.90;;;;;;4910636;29;20036;-72
2021/07/11 09:13:33;;;;;;;2.88;1.50;;;20.90;99.90;;;;;;4915364;28;20047;-70
2021/07/11 09:16:00;;;;;;;2.75;1.80;;;20.80;99.90;;;;;;4915504;29;20036;-74
2021/07/11 09:18:33;;;;;;;2.17;1.67;;;20.70;99.90;;;;;;4915222;29;20032;-70
2021/07/11 09:21:13;;;;;;;1.70;1.38;;;20.60;99.90;;;;;;4916415;28;20028;-72
2021/07/11 09:23:39;;;;;;;2.60;1.67;;;20.90;99.90;;;;;;4916294;28;20036;-73
2021/07/11 09:26:11;;;;;;;1.75;1.65;;;21.00;99.90;;;;;;4917094;29;20072;-72
2021/07/11 09:28:39;;;;;;;1.67;1.58;;;20.60;99.90;;;;;;4917407;29;20031;-72
2021/07/11 09:31:11;;;;;;;2.33;1.48;;;20.80;99.90;;;;;;4922571;28;20080;-73
2021/07/11 09:33:40;;;;;;;2.35;1.48;;;20.50;99.90;;;;;;4917860;29;20509;-71
2021/07/11 09:36:15;;;;;;;6.47;1.67;;;20.50;99.90;;;;;;4934621;29;20032;-71
2021/07/11 09:38:45;;;;;;;5.35;3.13;;;20.90;99.90;;;;;;4936797;29;20054;-72
2021/07/11 09:41:20;;;;;;;2.50;1.77;;;21.30;99.90;;;;;;4900579;29;20089;-71
2021/07/11 09:43:46;;;;;;;1.80;1.70;;;20.70;99.90;;;;;;4932617;28;20024;-71
2021/07/11 09:46:17;;;;;;;1.92;1.70;;;20.60;99.90;;;;;;4935793;28;20033;-70
2021/07/11 09:48:43;;;;;;;1.45;1.20;;;20.60;99.90;;;;;;4938805;28;20022;-72
2021/07/11 09:51:30;;;;;;;2.92;1.85;;;20.10;99.90;;;;;;4949926;28;20111;-72
2021/07/11 09:54:14;;;;;;;1.98;1.60;;;20.10;99.90;;;;;;4933746;29;20027;-72
2021/07/11 09:56:46;;;;;;;2.35;1.50;;;20.30;99.90;;;;;;4933834;29;20036;-69
2021/07/11 09:59:18;;;;;;;2.00;1.80;;;20.60;99.90;;;;;;4933755;29;20031;-69
2021/07/11 10:01:44;;;;;;;4.28;1.67;;;20.40;99.90;;;;;;4932557;29;20036;-69
2021/07/11 10:04:11;;;;;;;3.15;1.75;;;20.40;99.90;;;;;;5013099;22;20045;-70
2021/07/11 10:06:38;;;;;;;3.75;1.60;;;20.50;99.90;;;;;;5005930;28;20025;-69
2021/07/11 10:09:05;;;;;;;3.20;1.90;;;20.70;99.90;;;;;;5014067;28;20029;-69
2021/07/11 10:11:31;;;;;;;1.92;1.83;;;20.50;99.90;;;;;;4995684;28;20080;-69
2021/07/11 10:13:57;;;;;;;2.10;1.88;;;20.20;99.90;;;;;;5013782;28;20029;-69
2021/07/11 10:16:24;;;;;;;2.00;1.80;;;19.90;99.90;;;;;;5014061;28;20083;-68
2021/07/11 10:18:58;;;;;;;2.13;1.80;;;20.20;99.90;;;;;;5013751;28;20018;-69
2021/07/11 10:21:33;;;;;;;3.30;1.45;;;20.50;99.90;;;;;;5013408;28;20109;-69
2021/07/11 10:24:00;;;;;;;3.42;1.60;;;21.10;99.90;;;;;;5005998;28;20048;-70
2021/07/11 10:26:37;;;;;;;1.50;1.40;;;21.20;99.90;;;;;;5011663;28;20101;-70
2021/07/11 10:29:14;;;;;;;1.42;1.20;;;21.40;99.90;;;;;;5010396;28;20557;-70
2021/07/11 10:31:48;;;;;;;2.95;1.10;;;21.10;99.90;;;;;;5024149;28;20017;-70
2021/07/11 10:34:30;;;;;;;1.50;1.40;;;21.30;99.90;;;;;;5026438;28;20034;-70
2021/07/11 10:36:56;;;;;;;1.58;1.48;;;20.90;99.90;;;;;;5013129;28;20101;-70
2021/07/11 10:39:33;;;;;;;2.53;1.38;;;20.60;99.90;;;;;;5018244;28;20133;-70
2021/07/11 10:41:59;;;;;;;1.67;1.30;;;20.30;99.90;;;;;;5026832;28;20037;-69
2021/07/11 10:44:26;;;;;;;1.40;1.30;;;20.40;99.90;;;;;;5032777;28;20025;-69
2021/07/11 10:46:57;;;;;;;1.25;1.20;;;21.00;99.90;;;;;;5032344;28;20480;-69
2021/07/11 10:49:30;;;;;;;1.83;1.42;;;20.80;99.90;;;;;;5022524;28;20533;-72
2021/07/11 10:52:08;;;;;;;3.25;1.27;;;21.50;99.90;;;;;;5015256;28;20014;-69
2021/07/11 10:54:36;;;;;;;1.23;1.17;;;21.90;99.90;;;;;;5022623;28;20125;-69
2021/07/11 10:57:08;;;;;;;1.30;1.20;;;22.20;99.90;;;;;;5003545;28;20042;-69
2021/07/11 10:59:42;;;;;;;1.40;1.15;;;21.70;99.90;;;;;;5002101;28;20022;-69
2021/07/11 11:02:27;;;;;;;2.95;1.10;;;22.40;99.90;;;;;;5002015;28;20113;-69
2021/07/11 11:05:01;;;;;;;1.67;1.30;;;23.60;99.90;;;;;;5013461;28;20080;-69
2021/07/11 11:07:41;;;;;;;1.80;1.08;;;23.30;99.90;;;;;;5017613;28;20033;-69
2021/07/11 11:10:20;;;;;;;1.55;1.00;;;24.20;99.90;;;;;;5018385;28;20472;-69
2021/07/11 11:12:45;;;;;;;1.10;1.10;;;23.70;99.90;;;;;;5001309;28;20515;-69
2021/07/11 11:15:16;;;;;;;2.35;1.10;;;24.00;99.90;;;;;;5032903;28;20068;-70
2021/07/11 11:17:42;;;;;;;1.73;1.30;;;24.90;99.90;;;;;;5032281;28;20044;-70
2021/07/11 11:20:16;;;;;;;2.13;1.67;;;25.00;99.90;;;;;;5031472;28;20404;-69
2021/07/11 11:22:54;;;;;;;2.58;1.38;;;25.00;99.90;;;;;;5032202;28;20029;-69
2021/07/11 11:25:21;;;;;;;1.30;1.20;;;25.50;99.90;;;;;;5031694;28;20130;-69
2021/07/11 11:27:53;;;;;;;1.90;1.20;;;25.50;99.90;;;;;;5031329;28;20045;-69
2021/07/11 11:30:22;;;;;;;1.30;1.20;;;24.80;99.90;;;;;;5031293;28;20017;-70
2021/07/11 11:32:55;;;;;;;1.60;1.50;;;25.00;99.90;;;;;;5031523;28;20028;-69
2021/07/11 11:35:25;;;;;;;1.45;1.30;;;25.50;99.90;;;;;;5032029;28;20064;-69
2021/07/11 11:37:56;;;;;;;1.30;1.20;;;26.10;99.90;;;;;;5031922;28;20025;-70
2021/07/11 11:40:23;;;;;;;1.13;1.02;;;26.40;99.90;;;;;;5030931;28;20117;-70
2021/07/11 11:42:55;;;;;;;1.17;1.10;;;27.50;99.90;;;;;;5031725;28;20021;-69
2021/07/11 11:45:24;;;;;;;1.50;1.05;;;27.90;99.80;;;;;;5031407;28;20099;-70
2021/07/11 11:48:11;;;;;;;1.75;1.10;;;27.50;99.70;;;;;;5030855;28;20364;-69
2021/07/11 11:50:41;;;;;;;3.08;1.17;;;27.10;99.90;;;;;;5031013;28;20014;-68
2021/07/11 11:53:13;;;;;;;2.33;0.95;;;27.00;99.90;;;;;;5031742;28;20026;-69
2021/07/11 11:55:52;;;;;;;1.07;1.00;;;27.20;99.40;;;;;;5031206;28;20463;-67
2021/07/11 11:58:31;;;;;;;0.90;0.85;;;26.80;99.00;;;;;;5031645;28;20263;-70
2021/07/11 12:01:04;;;;;;;1.15;0.80;;;26.00;97.60;;;;;;5030787;28;20025;-69
2021/07/11 12:03:30;;;;;;;1.75;0.85;;;25.10;98.60;;;;;;5030887;28;20045;-69
2021/07/11 12:06:00;;;;;;;1.10;1.10;;;24.70;99.90;;;;;;5031138;28;20034;-69
2021/07/11 12:08:27;;;;;;;0.90;0.90;;;25.10;99.90;;;;;;5023277;28;20034;-68
2021/07/11 12:10:53;;;;;;;1.92;0.90;;;25.90;99.30;;;;;;5010694;28;20022;-69
2021/07/11 12:13:24;;;;;;;0.60;0.60;;;26.10;99.90;;;;;;4994017;28;20666;-69
2021/07/11 12:16:01;;;;;;;1.73;0.90;;;25.90;99.90;;;;;;5011548;28;20101;-68
2021/07/11 12:18:27;;;;;;;5.82;1.02;;;25.30;99.90;;;;;;5011388;28;20118;-68
2021/07/11 12:20:54;;;;;;;0.80;0.80;;;25.40;99.90;;;;;;5011077;28;20109;-68
2021/07/11 12:23:20;;;;;;;3.15;1.00;;;25.40;99.00;;;;;;5011349;28;20472;-68
2021/07/11 12:25:58;;;;;;;1.65;0.95;;;24.00;99.90;;;;;;5011617;28;20026;-68
2021/07/11 12:28:23;;;;;;;1.23;1.10;;;23.20;99.90;;;;;;5010863;28;20022;-70
2021/07/11 12:30:51;;;;;;;0.93;0.90;;;23.60;99.90;;;;;;5010392;28;20088;-69
2021/07/11 12:33:33;;;;;;;0.88;0.85;;;23.30;99.90;;;;;;5017308;28;20136;-68
2021/07/11 12:36:00;;;;;;;1.50;1.02;;;23.10;99.90;;;;;;5013427;28;20033;-68
2021/07/11 12:38:29;;;;;;;1.00;1.00;;;23.50;99.90;;;;;;5033997;28;20116;-69
2021/07/11 12:40:57;;;;;;;2.15;1.10;;;24.20;99.90;;;;;;5034202;28;20372;-69
2021/07/11 12:43:31;;;;;;;1.05;1.05;;;23.80;99.90;;;;;;5017171;28;20045;-68
2021/07/11 12:46:08;;;;;;;2.38;1.13;;;23.40;99.90;;;;;;5035123;28;20021;-68
2021/07/11 12:48:48;;;;;;;2.83;0.93;;;23.20;99.90;;;;;;5034522;28;20025;-68
2021/07/11 12:51:19;;;;;;;0.82;0.82;;;23.20;99.90;;;;;;5034446;28;20061;-68
2021/07/11 12:53:47;;;;;;;1.58;1.40;;;23.30;99.90;;;;;;5034805;28;20093;-69